createdAt,value
2022-10-01T00:03:47.099Z,10.97
2022-10-01T00:06:18.016Z,10.98
2022-10-01T00:08:50.998Z,10.99
2022-10-01T00:11:23.863Z,10.99
2022-10-01T00:13:53.639Z,10.98
2022-10-01T00:16:24.324Z,10.98
2022-10-01T00:18:54.187Z,10.96
2022-10-01T00:21:32.633Z,10.94
2022-10-01T00:24:07.676Z,10.94
2022-10-01T00:26:43.206Z,10.92
2022-10-01T00:32:18.220Z,10.89
2022-10-01T00:34:53.309Z,10.86
2022-10-01T00:37:46.104Z,10.85
2022-10-01T00:40:27.175Z,10.85
2022-10-01T00:43:00.920Z,10.85
2022-10-01T00:48:56.759Z,10.81
2022-10-01T00:51:44.079Z,10.78
2022-10-01T00:54:37.040Z,10.77
2022-10-01T00:57:23.161Z,10.77
2022-10-01T01:00:17.380Z,10.76
2022-10-01T01:05:33.321Z,10.77
2022-10-01T01:08:58.607Z,10.73
2022-10-01T01:15:09.037Z,10.76
2022-10-01T01:21:30.677Z,10.70
2022-10-01T01:24:41.595Z,10.71
2022-10-01T01:27:27.393Z,10.72
2022-10-01T01:30:34.482Z,10.68
2022-10-01T01:33:13.562Z,10.65
2022-10-01T01:35:58.911Z,10.67
2022-10-01T01:38:44.463Z,10.67
2022-10-01T01:41:22.405Z,10.69
2022-10-01T01:47:31.642Z,10.62
2022-10-01T01:50:10.042Z,10.63
2022-10-01T01:53:08.409Z,10.66
2022-10-01T01:56:04.993Z,10.64
2022-10-01T01:58:39.811Z,10.66
2022-10-01T02:01:36.366Z,10.64
2022-10-01T02:08:04.085Z,10.59
2022-10-01T02:12:08.577Z,10.58
2022-10-01T02:17:12.571Z,10.53
2022-10-01T02:20:45.632Z,10.52
2022-10-01T02:24:14.038Z,10.52
2022-10-01T02:40:45.564Z,10.48
2022-10-01T02:43:22.257Z,10.47
2022-10-01T02:46:02.358Z,10.48
2022-10-01T02:48:32.180Z,10.49
2022-10-01T02:51:44.190Z,10.50
2022-10-01T02:54:48.715Z,10.48
2022-10-01T02:57:24.306Z,10.45
2022-10-01T02:59:59.736Z,10.46
2022-10-01T03:06:25.453Z,10.40
2022-10-01T03:09:08.866Z,10.43
2022-10-01T03:18:12.135Z,10.42
2022-10-01T03:21:32.638Z,10.40
2022-10-01T03:27:34.328Z,10.37
2022-10-01T03:30:06.587Z,10.38
2022-10-01T03:39:05.003Z,10.41
2022-10-01T03:42:06.090Z,10.38
2022-10-01T03:51:54.504Z,10.37
2022-10-01T03:57:23.628Z,10.30
2022-10-01T03:59:51.889Z,10.30
2022-10-01T04:02:51.572Z,10.30
2022-10-01T04:05:25.981Z,10.30
2022-10-01T04:07:58.212Z,10.31
2022-10-01T04:10:41.759Z,10.29
2022-10-01T04:13:26.097Z,10.33
2022-10-01T04:16:19.243Z,10.34
2022-10-01T04:18:49.819Z,10.38
2022-10-01T04:21:35.039Z,10.33
2022-10-01T04:24:12.651Z,10.34
2022-10-01T04:26:48.313Z,10.32
2022-10-01T04:29:20.206Z,10.31
2022-10-01T04:32:12.651Z,10.26
2022-10-01T04:37:58.413Z,10.28
2022-10-01T04:40:34.562Z,10.23
2022-10-01T04:46:37.437Z,10.19
2022-10-01T04:49:17.760Z,10.17
2022-10-01T04:52:08.548Z,10.16
2022-10-01T05:01:28.740Z,10.14
2022-10-01T05:03:58.140Z,10.13
2022-10-01T05:06:34.725Z,10.12
2022-10-01T05:09:21.011Z,10.10
2022-10-01T05:12:40.946Z,10.11
2022-10-01T05:16:17.628Z,10.05
2022-10-01T05:18:52.445Z,10.06
2022-10-01T05:22:01.417Z,10.08
2022-10-01T05:24:34.538Z,10.06
2022-10-01T05:27:19.672Z,10.05
2022-10-01T05:29:51.152Z,10.05
2022-10-01T05:37:03.647Z,10.02
2022-10-01T05:39:36.742Z,9.99
2022-10-01T05:43:09.951Z,10.00
2022-10-01T05:45:43.942Z,9.97
2022-10-01T05:49:07.834Z,9.98
2022-10-01T05:54:46.828Z,10.00
2022-10-01T05:57:56.266Z,10.02
2022-10-01T06:00:35.320Z,10.04
2022-10-01T06:03:27.187Z,10.04
2022-10-01T06:09:52.163Z,10.11
2022-10-01T06:12:44.128Z,10.14
2022-10-01T06:15:24.960Z,10.15
2022-10-01T06:17:55.069Z,10.13
2022-10-01T06:20:52.823Z,10.15
2022-10-01T06:23:34.783Z,10.17
2022-10-01T06:26:37.109Z,10.15
2022-10-01T06:32:38.451Z,10.15
2022-10-01T06:35:24.552Z,10.16
2022-10-01T06:38:14.280Z,10.23
2022-10-01T06:44:18.228Z,10.25
2022-10-01T06:47:05.701Z,10.29
2022-10-01T06:49:37.534Z,10.32
2022-10-01T06:52:36.864Z,10.31
2022-10-01T06:55:40.093Z,10.34
2022-10-01T06:58:33.387Z,10.36
2022-10-01T07:01:16.814Z,10.47
2022-10-01T07:04:15.291Z,10.50
2022-10-01T07:06:51.251Z,10.60
2022-10-01T07:09:25.767Z,10.73
2022-10-01T07:11:59.002Z,10.78
2022-10-01T07:15:15.000Z,10.81
2022-10-01T07:18:28.376Z,10.83
2022-10-01T07:21:19.921Z,10.91
2022-10-01T07:23:59.909Z,10.97
2022-10-01T07:26:32.030Z,11.00
2022-10-01T07:29:07.076Z,11.05
2022-10-01T07:31:41.015Z,11.08
2022-10-01T07:34:20.812Z,11.16
2022-10-01T07:37:23.481Z,11.21
2022-10-01T07:40:08.836Z,11.28
2022-10-01T07:45:29.632Z,11.42
2022-10-01T07:47:59.591Z,11.46
2022-10-01T07:51:06.785Z,11.46
2022-10-01T07:59:44.995Z,11.92
2022-10-01T08:03:51.931Z,12.17
2022-10-01T08:06:25.405Z,12.52
2022-10-01T08:12:28.852Z,12.97
2022-10-01T08:15:15.905Z,13.01
2022-10-01T08:17:56.624Z,12.95
2022-10-01T08:20:25.718Z,12.84
2022-10-01T08:24:07.974Z,13.05
2022-10-01T08:26:59.166Z,13.33
2022-10-01T08:35:38.130Z,13.74
2022-10-01T08:38:56.388Z,13.84
2022-10-01T08:43:12.975Z,13.77
2022-10-01T08:45:27.270Z,13.71
2022-10-01T08:48:14.569Z,14.13
2022-10-01T09:43:10.588Z,14.13
2022-10-01T09:45:49.232Z,14.28
2022-10-01T09:48:36.103Z,14.36
2022-10-01T09:51:17.322Z,14.36
2022-10-01T09:54:01.539Z,14.47
2022-10-01T09:56:42.074Z,14.56
2022-10-01T09:59:25.732Z,14.56
2022-10-01T10:02:02.547Z,14.66
2022-10-01T10:04:31.860Z,14.75
2022-10-01T10:07:08.086Z,14.81
2022-10-01T10:09:57.676Z,14.86
2022-10-01T10:12:50.621Z,14.85
2022-10-01T10:15:22.241Z,14.87
2022-10-01T10:18:23.950Z,14.93
2022-10-01T10:27:27.037Z,15.24
2022-10-01T10:30:12.715Z,15.31
2022-10-01T10:32:41.805Z,15.55
2022-10-01T10:35:23.938Z,15.81
2022-10-01T10:38:02.641Z,15.93
2022-10-01T10:41:01.671Z,15.88
2022-10-01T10:44:15.267Z,16.33
2022-10-01T10:46:46.430Z,16.65
2022-10-01T10:55:33.294Z,17.06
2022-10-01T10:58:25.096Z,16.88
2022-10-01T11:00:59.057Z,16.86
2022-10-01T11:04:03.857Z,17.06
2022-10-01T11:06:44.147Z,17.09
2022-10-01T11:09:49.650Z,16.93
2022-10-01T11:13:01.028Z,16.65
2022-10-01T11:15:47.482Z,16.73
2022-10-01T11:19:08.793Z,16.93
2022-10-01T11:22:14.589Z,17.02
2022-10-01T11:25:30.692Z,17.19
2022-10-01T11:28:30.907Z,17.09
2022-10-01T11:34:56.085Z,17.41
2022-10-01T11:41:06.218Z,17.49
2022-10-01T11:44:15.967Z,17.54
2022-10-01T11:47:18.504Z,17.47
2022-10-01T11:50:20.409Z,17.68
2022-10-01T11:52:59.744Z,17.62
2022-10-01T11:59:03.743Z,18.48
2022-10-01T12:01:45.161Z,18.69
2022-10-01T12:08:09.467Z,18.41
2022-10-01T12:10:48.408Z,18.32
2022-10-01T12:13:35.607Z,18.58
2022-10-01T12:16:30.356Z,18.93
2022-10-01T12:19:11.379Z,19.19
2022-10-01T12:22:06.449Z,19.28
2022-10-01T12:25:09.239Z,19.21
2022-10-01T12:28:04.792Z,19.17
2022-10-01T12:31:04.299Z,19.31
2022-10-01T12:34:11.748Z,19.22
2022-10-01T12:37:13.096Z,19.24
2022-10-01T12:40:35.968Z,19.38
2022-10-01T12:44:07.776Z,19.45
2022-10-01T12:47:24.363Z,19.52
2022-10-01T12:50:19.205Z,19.78
2022-10-01T12:53:34.401Z,20.17
2022-10-01T12:56:29.479Z,20.07
2022-10-01T12:59:58.453Z,20.47
2022-10-01T13:03:02.147Z,20.85
2022-10-01T13:06:39.878Z,20.75
2022-10-01T13:09:48.901Z,19.87
2022-10-01T13:16:15.617Z,19.44
2022-10-01T13:27:17.751Z,18.92
2022-10-01T13:30:22.259Z,18.83
2022-10-01T13:33:20.971Z,18.61
2022-10-01T13:36:28.238Z,18.57
2022-10-01T13:40:41.801Z,18.35
2022-10-01T14:32:35.837Z,18.53
2022-10-01T14:42:01.501Z,17.85
2022-10-01T14:44:59.350Z,17.69
2022-10-01T14:48:16.184Z,17.52
2022-10-01T14:54:13.074Z,17.86
2022-10-01T14:57:05.027Z,17.99
2022-10-01T15:06:42.730Z,19.03
2022-10-01T15:09:18.827Z,19.05
2022-10-01T15:12:02.216Z,18.96
2022-10-01T15:14:33.955Z,18.82
2022-10-01T15:17:32.431Z,18.71
2022-10-01T15:24:23.962Z,18.23
2022-10-01T17:05:55.535Z,16.31
2022-10-01T17:08:23.951Z,16.25
2022-10-01T17:11:15.451Z,16.22
2022-10-01T17:13:43.911Z,16.12
2022-10-01T17:16:15.653Z,16.03
2022-10-01T17:19:11.651Z,15.93
2022-10-01T17:21:42.927Z,15.79
2022-10-01T17:24:14.546Z,15.70
2022-10-01T17:26:46.843Z,15.64
2022-10-01T17:29:17.148Z,15.58
2022-10-01T17:32:15.651Z,15.51
2022-10-01T17:34:46.790Z,15.40
2022-10-01T17:37:17.095Z,15.31
2022-10-01T17:39:54.614Z,15.23
2022-10-01T17:42:36.849Z,15.14
2022-10-01T17:45:31.822Z,15.06
2022-10-01T17:48:01.249Z,15.00
2022-10-01T17:50:32.166Z,14.91
2022-10-01T17:53:08.519Z,14.85
2022-10-01T17:55:46.926Z,14.76
2022-10-01T17:58:16.492Z,14.74
2022-10-01T18:00:44.893Z,14.69
2022-10-01T18:03:14.778Z,14.67
2022-10-01T18:08:55.037Z,14.58
2022-10-01T18:11:28.522Z,14.52
2022-10-01T18:14:09.661Z,14.49
2022-10-01T18:16:38.447Z,14.44
2022-10-01T18:21:57.347Z,14.32
2022-10-01T18:24:28.570Z,14.27
2022-10-01T18:27:01.669Z,14.27
2022-10-01T18:29:30.035Z,14.32
2022-10-01T18:32:15.220Z,14.33
2022-10-01T18:34:48.656Z,14.33
2022-10-01T18:37:28.691Z,14.38
2022-10-01T18:40:16.293Z,14.43
2022-10-01T18:42:50.132Z,14.50
2022-10-01T18:45:26.639Z,14.53
2022-10-01T18:49:45.852Z,14.56
2022-10-01T18:52:37.965Z,14.53
2022-10-01T18:56:01.706Z,14.55
2022-10-01T18:59:06.865Z,14.50
2022-10-01T19:01:50.949Z,14.41
2022-10-01T19:04:43.813Z,14.31
2022-10-01T19:07:24.001Z,14.27
2022-10-01T19:10:01.701Z,14.14
2022-10-01T19:12:46.964Z,13.89
2022-10-01T19:15:38.989Z,13.66
2022-10-01T19:18:28.395Z,13.52
2022-10-01T19:21:08.651Z,13.44
2022-10-01T19:23:42.042Z,13.37
2022-10-01T19:26:19.581Z,13.26
2022-10-01T19:29:07.655Z,13.14
2022-10-01T19:31:44.931Z,13.08
2022-10-01T19:34:22.629Z,12.97
2022-10-01T19:37:07.061Z,12.92
2022-10-01T19:39:40.622Z,12.89
2022-10-01T19:42:16.013Z,12.84
2022-10-01T19:44:56.887Z,12.84
2022-10-01T19:47:33.120Z,12.81
2022-10-01T19:50:11.301Z,12.80
2022-10-01T19:52:49.510Z,12.77
2022-10-01T19:55:25.955Z,12.71
2022-10-01T19:57:54.463Z,12.69
2022-10-01T20:00:25.181Z,12.68
2022-10-01T20:03:04.351Z,12.64
2022-10-01T20:05:43.511Z,12.63
2022-10-01T20:08:18.277Z,12.60
2022-10-01T20:10:51.344Z,12.57
2022-10-01T20:13:37.465Z,12.55
2022-10-01T20:16:20.049Z,12.54
2022-10-01T20:18:57.693Z,12.51
2022-10-01T20:21:57.574Z,12.48
2022-10-01T20:24:41.955Z,12.48
2022-10-01T20:27:27.972Z,12.51
2022-10-01T20:30:04.905Z,12.60
2022-10-01T20:32:39.349Z,12.66
2022-10-01T20:35:21.033Z,12.62
2022-10-01T20:37:59.652Z,12.57
2022-10-01T20:40:32.889Z,12.54
2022-10-01T20:43:07.245Z,12.53
2022-10-01T20:45:36.707Z,12.48
2022-10-01T20:48:16.163Z,12.41
2022-10-01T20:50:47.842Z,12.35
2022-10-01T20:53:35.361Z,12.30
2022-10-01T20:56:06.658Z,12.25
2022-10-01T20:59:14.010Z,12.22
2022-10-01T21:01:50.952Z,12.16
2022-10-01T21:04:33.803Z,12.15
2022-10-01T21:07:11.987Z,12.10
2022-10-01T21:09:51.924Z,12.06
2022-10-01T21:12:34.400Z,12.04
2022-10-01T21:15:04.337Z,12.02
2022-10-01T21:17:56.818Z,11.99
2022-10-01T21:21:00.597Z,11.92
2022-10-01T21:24:06.706Z,11.91
2022-10-01T21:26:43.611Z,11.90
2022-10-01T21:29:42.253Z,11.90
2022-10-01T21:32:25.913Z,11.91
2022-10-01T21:35:23.818Z,11.94
2022-10-01T21:38:28.123Z,11.99
2022-10-01T21:41:16.282Z,12.02
2022-10-01T21:44:26.202Z,12.06
2022-10-01T21:47:04.599Z,12.09
2022-10-01T21:49:56.035Z,12.10
2022-10-01T21:52:37.371Z,12.09
2022-10-01T21:55:48.863Z,12.10
2022-10-01T21:58:33.900Z,12.10
2022-10-01T22:01:13.886Z,12.10
2022-10-01T22:03:49.672Z,12.06
2022-10-01T22:06:23.862Z,12.03
2022-10-01T22:11:51.214Z,12.06
2022-10-01T22:14:39.150Z,12.09
2022-10-01T22:17:17.290Z,12.11
2022-10-01T22:19:52.709Z,12.14
2022-10-01T22:22:31.320Z,12.17
2022-10-01T22:25:10.587Z,12.16
2022-10-01T22:27:51.139Z,12.22
2022-10-01T22:30:26.022Z,12.22
2022-10-01T22:33:08.147Z,12.27
2022-10-01T22:35:44.129Z,12.25
2022-10-01T22:38:19.987Z,12.21
2022-10-01T22:41:00.634Z,12.20
2022-10-01T22:43:30.914Z,12.15
2022-10-01T22:46:37.930Z,12.16
2022-10-01T22:49:15.135Z,12.19
2022-10-01T22:51:57.627Z,12.24
2022-10-01T22:55:05.257Z,12.26
2022-10-01T22:57:54.690Z,12.30
2022-10-01T23:00:23.285Z,12.29
2022-10-01T23:06:19.868Z,12.31
2022-10-01T23:09:01.682Z,12.30
2022-10-01T23:11:44.983Z,12.28
2022-10-01T23:14:30.321Z,12.31
2022-10-01T23:17:33.631Z,12.29
2022-10-01T23:20:15.853Z,12.30
2022-10-01T23:23:21.718Z,12.29
2022-10-01T23:26:08.647Z,12.27
2022-10-01T23:29:00.017Z,12.23
2022-10-01T23:31:38.128Z,12.19
2022-10-01T23:34:26.114Z,12.15
2022-10-01T23:37:16.547Z,12.14
2022-10-01T23:40:03.870Z,12.13
2022-10-01T23:42:43.642Z,12.15
2022-10-01T23:45:21.634Z,12.13
2022-10-01T23:47:57.564Z,12.09
2022-10-01T23:50:36.460Z,12.10
2022-10-01T23:53:23.102Z,12.05
2022-10-01T23:56:14.499Z,12.06
2022-10-01T23:58:48.729Z,12.09
